Terminal Aerodrome Forecast
Issued by NWS Sterling, VA

Current Version | Previous Version | Graphics & Text | Print | Product List | Glossary On
Versions: 1 2 3 4 5 6 7 8 9 10 11 12 13 14 15 16 17 18 19 20 21 22 23 24 25 26 27 28 29 30
677
FTUS41 KLWX 171733
TAFDCA
TAF
KDCA 171733Z 1718/1824 13007KT P6SM BKN050 BKN150
     FM172000 14006KT P6SM OVC025
     FM172200 14006KT 2SM -SNPL OVC015
     FM180000 12005KT 1SM -SNPL OVC008
     FM180300 VRB03KT P6SM OVC010
     FM180600 VRB03KT P6SM BKN025
     FM180900 29005KT P6SM SCT250
     FM182200 23004KT P6SM FEW250=

USA.gov is the U.S. government's official web portal to all federal, state and local government web resources and services.